Time;durP1;ratioP1;P1;durP2;ratioP2;P2;SDS_P1;SDS_P2;PMS_P1;PMS_P2;Temp;Humidity;BMP_temperature;BMP_pressure;BME280_temperature;BME280_humidity;BME280_pressure;Samples;Min_cycle;Max_cycle;Signal;HPM_P1;HPM_P2
2021/06/13 00:00:39;;;;;;;9.20;2.72;;;14.70;99.90;;;;;;5094321;28;20196;-73
2021/06/13 00:03:07;;;;;;;7.20;2.72;;;14.80;99.90;;;;;;5093976;28;20252;-73
2021/06/13 00:05:36;;;;;;;5.28;2.70;;;14.70;99.90;;;;;;5093885;28;20231;-73
2021/06/13 00:08:03;;;;;;;6.70;3.50;;;14.80;99.90;;;;;;5093888;28;20227;-73
2021/06/13 00:10:31;;;;;;;6.15;3.03;;;14.70;99.90;;;;;;5093794;28;20222;-71
2021/06/13 00:12:58;;;;;;;5.30;3.10;;;14.70;99.90;;;;;;5094407;28;20291;-73
2021/06/13 00:15:27;;;;;;;3.67;2.80;;;14.70;99.90;;;;;;5094461;28;20208;-72
2021/06/13 00:17:54;;;;;;;4.40;3.13;;;14.70;99.90;;;;;;5093906;28;20204;-73
2021/06/13 00:20:24;;;;;;;5.40;3.10;;;14.80;99.90;;;;;;5092676;28;20205;-72
2021/06/13 00:22:53;;;;;;;6.03;3.30;;;14.90;99.90;;;;;;5093222;28;20197;-72
2021/06/13 00:25:22;;;;;;;6.43;3.03;;;15.00;99.90;;;;;;5093635;28;20597;-73
2021/06/13 00:27:49;;;;;;;8.57;3.67;;;15.10;99.90;;;;;;5093445;28;20238;-72
2021/06/13 00:30:17;;;;;;;6.18;2.80;;;15.10;99.90;;;;;;5093576;28;20566;-72
2021/06/13 00:32:44;;;;;;;4.18;2.88;;;15.10;99.90;;;;;;5093532;28;20239;-73
2021/06/13 00:35:14;;;;;;;6.78;3.13;;;15.10;99.90;;;;;;5093489;28;20299;-73
2021/06/13 00:37:41;;;;;;;8.50;3.17;;;15.10;99.90;;;;;;5092798;28;20239;-73
2021/06/13 00:40:11;;;;;;;6.13;2.78;;;15.10;99.90;;;;;;5093351;28;20210;-72
2021/06/13 00:42:38;;;;;;;7.07;2.70;;;15.00;99.90;;;;;;5093562;28;20203;-72
2021/06/13 00:45:08;;;;;;;3.88;3.00;;;14.90;99.90;;;;;;5093617;28;20206;-72
2021/06/13 00:47:35;;;;;;;6.93;2.88;;;14.70;99.90;;;;;;5092755;28;20200;-74
2021/06/13 00:50:03;;;;;;;10.02;3.45;;;14.70;99.90;;;;;;5092847;28;20215;-72
2021/06/13 00:52:31;;;;;;;7.50;3.42;;;14.60;99.90;;;;;;5088995;28;20614;-73
2021/06/13 00:54:59;;;;;;;3.80;2.77;;;14.60;99.90;;;;;;5072397;28;20656;-73
2021/06/13 00:57:27;;;;;;;5.20;3.15;;;14.50;99.90;;;;;;5072385;28;20652;-74
2021/06/13 00:59:55;;;;;;;6.47;3.20;;;14.40;99.90;;;;;;5072071;28;20197;-73
2021/06/13 01:02:23;;;;;;;6.10;3.00;;;14.30;99.90;;;;;;5072580;28;20200;-73
2021/06/13 01:04:50;;;;;;;6.95;4.40;;;14.30;99.90;;;;;;5072254;28;20299;-73
2021/06/13 01:07:25;;;;;;;6.03;3.63;;;14.20;99.90;;;;;;5072420;28;20604;-72
2021/06/13 01:09:56;;;;;;;6.83;3.00;;;14.10;99.90;;;;;;5072511;28;20204;-73
2021/06/13 01:12:28;;;;;;;5.90;2.60;;;14.00;99.90;;;;;;5072563;28;20524;-72
2021/06/13 01:15:04;;;;;;;5.37;2.93;;;13.90;99.90;;;;;;5072492;28;20213;-73
2021/06/13 01:17:34;;;;;;;5.10;3.23;;;13.80;99.90;;;;;;5072073;28;20545;-72
2021/06/13 01:20:16;;;;;;;6.27;2.87;;;13.90;99.90;;;;;;5072159;28;20197;-72
2021/06/13 01:23:18;;;;;;;5.67;3.43;;;13.70;99.90;;;;;;5072314;28;20196;-73
2021/06/13 01:26:20;;;;;;;4.23;3.40;;;13.80;99.90;;;;;;5062304;28;20200;-73
2021/06/13 01:28:55;;;;;;;5.87;2.87;;;13.90;99.90;;;;;;5052319;28;20186;-73
2021/06/13 01:31:25;;;;;;;6.80;3.30;;;13.80;99.90;;;;;;5051594;28;20232;-73
2021/06/13 01:33:55;;;;;;;5.80;3.40;;;13.80;99.90;;;;;;5052195;28;20236;-74
2021/06/13 01:36:24;;;;;;;6.50;3.00;;;13.70;99.90;;;;;;5052084;28;20197;-73
2021/06/13 01:38:52;;;;;;;5.73;3.57;;;13.80;99.90;;;;;;5052040;28;20292;-72
2021/06/13 01:41:23;;;;;;;6.43;2.93;;;13.70;99.90;;;;;;5052078;28;20202;-72
2021/06/13 01:43:54;;;;;;;5.43;3.40;;;13.70;99.90;;;;;;5052127;28;20284;-72
2021/06/13 01:46:24;;;;;;;8.77;3.60;;;13.60;99.90;;;;;;5051823;28;20185;-72
2021/06/13 01:48:52;;;;;;;4.90;3.27;;;13.50;99.90;;;;;;5051928;28;20246;-73
2021/06/13 01:51:21;;;;;;;7.43;3.70;;;13.50;99.90;;;;;;5052283;28;20213;-73
2021/06/13 01:53:50;;;;;;;5.17;3.20;;;13.60;99.90;;;;;;5065560;28;20199;-73
2021/06/13 01:56:18;;;;;;;5.60;3.17;;;13.60;99.90;;;;;;5071834;28;20211;-72
2021/06/13 01:58:47;;;;;;;6.37;3.13;;;13.60;99.90;;;;;;5071887;28;20237;-74
2021/06/13 02:01:19;;;;;;;7.10;3.20;;;13.50;99.90;;;;;;5071880;28;20224;-73
2021/06/13 02:03:49;;;;;;;5.77;3.40;;;13.40;99.90;;;;;;5071921;28;20829;-72
2021/06/13 02:06:19;;;;;;;6.67;3.30;;;13.40;99.90;;;;;;5071940;28;20192;-72
2021/06/13 02:08:48;;;;;;;9.87;3.50;;;13.30;99.90;;;;;;5071728;28;20181;-72
2021/06/13 02:11:16;;;;;;;4.97;3.10;;;13.30;99.90;;;;;;5071664;28;20235;-72
2021/06/13 02:13:47;;;;;;;7.77;3.77;;;13.20;99.90;;;;;;5071778;28;20203;-72
2021/06/13 02:16:16;;;;;;;6.70;3.43;;;13.10;99.90;;;;;;5071649;28;20201;-73
2021/06/13 02:18:44;;;;;;;8.37;3.60;;;13.20;99.90;;;;;;5071617;28;20288;-73
2021/06/13 02:21:13;;;;;;;8.63;3.70;;;13.20;99.90;;;;;;5071621;28;20233;-73
2021/06/13 02:23:43;;;;;;;6.03;3.63;;;13.20;99.90;;;;;;5071405;28;20237;-74
2021/06/13 02:26:12;;;;;;;5.80;3.43;;;13.20;99.90;;;;;;5071319;28;20205;-73
2021/06/13 02:28:42;;;;;;;6.43;2.70;;;13.30;99.90;;;;;;5090379;28;20323;-73
2021/06/13 02:31:10;;;;;;;5.50;3.30;;;13.40;99.90;;;;;;5091530;28;20216;-74
2021/06/13 02:33:43;;;;;;;8.43;3.70;;;13.40;99.90;;;;;;5091548;28;20203;-73
2021/06/13 02:36:11;;;;;;;6.33;3.63;;;13.40;99.90;;;;;;5091371;28;20271;-72
2021/06/13 02:38:38;;;;;;;7.43;3.33;;;13.50;99.90;;;;;;5091482;28;20226;-73
2021/06/13 02:41:06;;;;;;;6.50;3.20;;;13.50;99.90;;;;;;5091359;28;20200;-72
2021/06/13 02:43:33;;;;;;;5.93;3.57;;;13.60;99.90;;;;;;5092070;28;20597;-73
2021/06/13 02:46:01;;;;;;;7.50;3.47;;;13.70;99.90;;;;;;5095248;28;20210;-73
2021/06/13 02:48:28;;;;;;;6.37;3.70;;;13.60;99.90;;;;;;5095058;28;20204;-72
2021/06/13 02:50:58;;;;;;;7.17;3.77;;;13.70;99.90;;;;;;5095258;28;20539;-73
2021/06/13 02:53:32;;;;;;;4.13;3.17;;;13.70;99.90;;;;;;5084056;28;20189;-72
2021/06/13 02:56:08;;;;;;;7.80;3.33;;;13.70;99.90;;;;;;5075073;28;20185;-72
2021/06/13 02:58:42;;;;;;;5.63;3.40;;;13.70;99.90;;;;;;5074663;28;20613;-73
2021/06/13 03:01:13;;;;;;;6.57;3.10;;;13.80;99.90;;;;;;5074881;28;20182;-73
2021/06/13 03:03:43;;;;;;;5.43;3.33;;;13.80;99.90;;;;;;5074637;28;20239;-73
2021/06/13 03:06:14;;;;;;;5.23;3.40;;;13.70;99.90;;;;;;5074560;28;20224;-72
2021/06/13 03:08:42;;;;;;;5.73;3.23;;;13.70;99.90;;;;;;5074629;28;20206;-72
2021/06/13 03:11:12;;;;;;;8.27;3.27;;;13.60;99.90;;;;;;5074623;28;20220;-73
2021/06/13 03:13:40;;;;;;;7.37;3.87;;;13.60;99.90;;;;;;5074418;28;20203;-74
2021/06/13 03:16:09;;;;;;;9.53;3.23;;;13.60;99.90;;;;;;5074605;28;20201;-74
2021/06/13 03:18:37;;;;;;;8.70;3.80;;;13.50;99.90;;;;;;5074426;28;20664;-74
2021/06/13 03:21:06;;;;;;;5.90;3.30;;;13.60;99.90;;;;;;5074529;28;20596;-74
2021/06/13 03:23:36;;;;;;;7.93;3.20;;;13.60;99.90;;;;;;5074249;28;20208;-72
2021/06/13 03:26:04;;;;;;;6.93;3.40;;;13.60;99.90;;;;;;5074420;28;20214;-75
2021/06/13 03:28:34;;;;;;;5.47;3.53;;;13.60;99.90;;;;;;5074218;28;20323;-72
2021/06/13 03:31:03;;;;;;;6.03;3.60;;;13.70;99.90;;;;;;5073843;28;20328;-73
2021/06/13 03:33:34;;;;;;;5.77;3.10;;;13.70;99.90;;;;;;5074175;28;20372;-73
2021/06/13 03:36:03;;;;;;;8.33;3.60;;;13.70;99.90;;;;;;5074367;28;20280;-73
2021/06/13 03:38:32;;;;;;;7.17;3.33;;;13.70;99.90;;;;;;5073930;28;20201;-73
2021/06/13 03:41:02;;;;;;;5.10;3.13;;;13.60;99.90;;;;;;5074150;28;20197;-71
2021/06/13 03:43:31;;;;;;;7.47;3.40;;;13.50;99.90;;;;;;5074048;28;20201;-72
2021/06/13 03:46:00;;;;;;;10.90;3.83;;;13.50;99.90;;;;;;5073946;28;20200;-73
2021/06/13 03:48:28;;;;;;;6.53;3.23;;;13.40;99.90;;;;;;5073909;28;20228;-73
2021/06/13 03:50:58;;;;;;;6.20;3.30;;;13.40;99.90;;;;;;5073782;28;20217;-73
2021/06/13 03:53:27;;;;;;;6.60;3.13;;;13.30;99.90;;;;;;5084773;28;20211;-73
2021/06/13 03:55:55;;;;;;;8.77;3.53;;;13.50;99.90;;;;;;5093505;28;20655;-73
2021/06/13 03:58:26;;;;;;;5.87;3.37;;;13.40;99.90;;;;;;5093951;28;20204;-73
2021/06/13 04:00:55;;;;;;;5.97;3.30;;;13.40;99.90;;;;;;5093867;28;20246;-73
2021/06/13 04:03:25;;;;;;;6.23;3.70;;;13.60;99.90;;;;;;5093982;28;20204;-73
2021/06/13 04:05:53;;;;;;;9.60;3.40;;;13.60;99.90;;;;;;5093567;28;20561;-72
2021/06/13 04:08:22;;;;;;;7.03;3.40;;;13.50;99.90;;;;;;5093612;28;20200;-74
2021/06/13 04:10:52;;;;;;;8.33;3.37;;;13.60;99.90;;;;;;5093385;28;20291;-73
2021/06/13 04:13:20;;;;;;;6.53;3.67;;;13.50;99.90;;;;;;5093394;28;20191;-73
2021/06/13 04:15:50;;;;;;;8.90;3.57;;;13.50;99.90;;;;;;5093583;28;20206;-73
2021/06/13 04:18:19;;;;;;;9.53;3.43;;;13.40;99.90;;;;;;5093530;28;20180;-73
2021/06/13 04:20:48;;;;;;;7.50;3.50;;;13.30;99.90;;;;;;5093524;28;20291;-74
2021/06/13 04:23:16;;;;;;;7.03;3.57;;;13.30;99.90;;;;;;5092901;28;20196;-74
2021/06/13 04:25:45;;;;;;;7.07;3.87;;;13.30;99.90;;;;;;5093146;28;20307;-73
2021/06/13 04:28:15;;;;;;;6.33;3.33;;;13.40;99.90;;;;;;5093257;28;20343;-74
2021/06/13 04:30:53;;;;;;;8.53;3.80;;;13.40;99.90;;;;;;5093096;28;20232;-73
2021/06/13 04:33:23;;;;;;;6.80;3.57;;;13.50;99.90;;;;;;5093311;28;20305;-74
2021/06/13 04:35:50;;;;;;;6.73;3.40;;;13.60;99.90;;;;;;5093429;28;20206;-73
2021/06/13 04:38:18;;;;;;;6.83;3.30;;;13.60;99.90;;;;;;5092973;28;20287;-73
2021/06/13 04:40:46;;;;;;;6.87;3.67;;;13.70;99.90;;;;;;5093132;28;20658;-73
2021/06/13 04:43:14;;;;;;;6.97;3.73;;;13.80;99.90;;;;;;5093045;28;20832;-72
2021/06/13 04:45:42;;;;;;;6.50;3.70;;;14.00;99.90;;;;;;5092876;28;20286;-73
2021/06/13 04:48:10;;;;;;;9.03;3.50;;;14.30;99.90;;;;;;5093165;28;20212;-74
2021/06/13 04:50:43;;;;;;;8.63;3.47;;;14.60;99.90;;;;;;5093015;28;20291;-72
2021/06/13 04:53:47;;;;;;;5.33;3.17;;;14.90;99.90;;;;;;5083882;28;20201;-73
2021/06/13 04:56:21;;;;;;;7.32;3.60;;;15.10;99.90;;;;;;5072643;28;20271;-74
2021/06/13 04:58:49;;;;;;;6.33;3.63;;;15.20;99.90;;;;;;5072329;28;20715;-74
2021/06/13 05:01:17;;;;;;;7.00;3.13;;;15.20;99.90;;;;;;5072534;28;20201;-74
2021/06/13 05:03:44;;;;;;;7.88;3.35;;;15.10;99.90;;;;;;5072447;28;20196;-74
2021/06/13 05:06:14;;;;;;;7.83;3.50;;;15.20;99.90;;;;;;5071760;28;20690;-74
2021/06/13 05:08:43;;;;;;;10.32;3.80;;;15.30;99.90;;;;;;5072252;28;20307;-73
2021/06/13 05:11:11;;;;;;;6.80;3.73;;;15.20;99.90;;;;;;5072339;28;20549;-73
2021/06/13 05:13:41;;;;;;;10.55;4.60;;;15.40;99.90;;;;;;5072426;28;20239;-74
2021/06/13 05:16:09;;;;;;;10.10;3.45;;;15.60;99.90;;;;;;5072188;28;20206;-74
2021/06/13 05:18:37;;;;;;;8.55;3.30;;;16.10;99.90;;;;;;5072298;28;20207;-74
2021/06/13 05:21:05;;;;;;;11.25;3.35;;;16.70;99.90;;;;;;5072330;28;20201;-73
2021/06/13 05:23:35;;;;;;;5.97;3.88;;;16.90;99.90;;;;;;5072127;28;20193;-74
2021/06/13 05:26:04;;;;;;;7.18;3.55;;;16.80;99.90;;;;;;5071866;28;20292;-74
2021/06/13 05:28:32;;;;;;;7.15;3.50;;;16.60;99.90;;;;;;5071995;28;20788;-73
2021/06/13 05:31:00;;;;;;;10.13;3.90;;;16.50;99.90;;;;;;5072059;28;20196;-73
2021/06/13 05:33:31;;;;;;;7.18;3.33;;;16.20;99.90;;;;;;5072065;28;20598;-73
2021/06/13 05:36:01;;;;;;;7.82;3.72;;;15.90;99.90;;;;;;5072134;28;20207;-74
2021/06/13 05:38:30;;;;;;;7.95;3.55;;;15.90;99.90;;;;;;5071692;28;20207;-74
2021/06/13 05:40:59;;;;;;;9.27;3.28;;;15.90;99.90;;;;;;5072044;28;20287;-73
2021/06/13 05:43:27;;;;;;;8.18;3.92;;;15.80;99.90;;;;;;5071916;28;20193;-75
2021/06/13 05:45:58;;;;;;;7.35;3.70;;;15.80;99.90;;;;;;5072064;28;20287;-74
2021/06/13 05:48:26;;;;;;;10.07;3.80;;;15.90;99.90;;;;;;5072116;28;20278;-73
2021/06/13 05:50:54;;;;;;;6.95;3.80;;;15.90;99.90;;;;;;5071931;28;20739;-74
2021/06/13 05:53:22;;;;;;;8.65;3.72;;;15.90;99.90;;;;;;5081592;28;20307;-74
2021/06/13 05:55:49;;;;;;;9.27;3.88;;;16.00;99.90;;;;;;5091752;28;20206;-74
2021/06/13 05:58:19;;;;;;;7.88;3.88;;;16.00;99.90;;;;;;5091581;28;20295;-73
2021/06/13 06:00:47;;;;;;;9.77;3.95;;;16.00;99.90;;;;;;5091877;28;20231;-73
2021/06/13 06:03:15;;;;;;;8.15;3.60;;;16.00;99.90;;;;;;5091934;28;20192;-74
2021/06/13 06:05:43;;;;;;;5.72;3.40;;;16.10;99.90;;;;;;5092076;28;20222;-74
2021/06/13 06:08:11;;;;;;;6.68;3.45;;;16.10;99.90;;;;;;5091759;28;20200;-74
2021/06/13 06:10:38;;;;;;;10.10;3.80;;;16.00;99.90;;;;;;5092114;28;20541;-75
2021/06/13 06:13:06;;;;;;;8.15;3.95;;;16.00;99.90;;;;;;5092367;28;20329;-74
2021/06/13 06:15:37;;;;;;;11.05;3.55;;;16.00;99.90;;;;;;5092477;28;20210;-74
2021/06/13 06:18:06;;;;;;;7.90;3.17;;;16.00;99.90;;;;;;5092347;28;20258;-74
2021/06/13 06:20:35;;;;;;;7.05;3.40;;;16.10;99.90;;;;;;5096348;28;20199;-74
2021/06/13 06:23:04;;;;;;;5.65;2.97;;;16.10;99.90;;;;;;5096150;28;20288;-73
2021/06/13 06:25:32;;;;;;;6.53;3.33;;;16.20;99.90;;;;;;5096320;28;20338;-73
2021/06/13 06:28:00;;;;;;;8.55;3.53;;;16.30;99.90;;;;;;5096047;28;20228;-73
2021/06/13 06:30:29;;;;;;;10.75;4.07;;;16.30;99.90;;;;;;5095837;28;20805;-74
2021/06/13 06:32:58;;;;;;;8.25;3.60;;;16.10;99.90;;;;;;5095829;28;20580;-74
2021/06/13 06:35:27;;;;;;;6.72;3.47;;;16.20;99.90;;;;;;5096224;28;20180;-73
2021/06/13 06:37:56;;;;;;;7.72;3.40;;;16.40;99.90;;;;;;5096126;28;20243;-75
2021/06/13 06:40:24;;;;;;;5.47;3.03;;;16.70;99.90;;;;;;5096155;28;20200;-73
2021/06/13 06:42:52;;;;;;;9.68;3.38;;;16.90;99.90;;;;;;5096301;28;20218;-74
2021/06/13 06:45:20;;;;;;;8.73;3.50;;;17.30;99.90;;;;;;5096124;28;20200;-73
2021/06/13 06:47:48;;;;;;;7.22;3.13;;;17.60;99.90;;;;;;5092869;28;20293;-73
2021/06/13 06:50:18;;;;;;;8.07;3.75;;;17.80;99.90;;;;;;5075461;28;20311;-74
2021/06/13 06:52:47;;;;;;;6.68;3.40;;;18.00;99.90;;;;;;5080782;28;20320;-73
2021/06/13 06:55:15;;;;;;;8.18;3.75;;;18.00;99.90;;;;;;5075756;28;20540;-74
2021/06/13 06:57:45;;;;;;;7.05;2.88;;;18.10;99.90;;;;;;5075172;28;20232;-74
2021/06/13 07:00:15;;;;;;;7.45;3.03;;;18.10;99.90;;;;;;5074941;28;20232;-74
2021/06/13 07:02:43;;;;;;;7.60;2.88;;;18.10;99.90;;;;;;5074427;28;20703;-75
2021/06/13 07:05:12;;;;;;;6.00;3.10;;;17.90;99.90;;;;;;5074685;28;20203;-74
2021/06/13 07:07:42;;;;;;;6.82;3.20;;;17.70;99.90;;;;;;5074457;28;20287;-75
2021/06/13 07:10:12;;;;;;;6.07;3.53;;;17.50;99.90;;;;;;5074724;28;20211;-75
2021/06/13 07:12:40;;;;;;;5.80;3.30;;;17.10;99.90;;;;;;5075190;28;20311;-74
2021/06/13 07:15:10;;;;;;;8.07;3.42;;;16.80;99.90;;;;;;5075161;28;20262;-75
2021/06/13 07:17:38;;;;;;;5.80;3.75;;;16.40;99.90;;;;;;5074535;28;20280;-73
2021/06/13 07:20:08;;;;;;;10.88;3.60;;;16.20;99.90;;;;;;5074339;28;20556;-74
2021/06/13 07:22:36;;;;;;;8.07;3.70;;;16.20;99.90;;;;;;5074540;28;20231;-74
2021/06/13 07:25:07;;;;;;;8.15;3.85;;;16.20;99.90;;;;;;5071283;28;20228;-74
2021/06/13 07:27:35;;;;;;;9.35;4.20;;;16.30;99.90;;;;;;5074765;28;20331;-74
2021/06/13 07:30:05;;;;;;;8.38;3.83;;;16.50;99.90;;;;;;5074279;28;20204;-73
2021/06/13 07:32:32;;;;;;;6.68;3.40;;;16.70;99.90;;;;;;5074762;28;20296;-73
2021/06/13 07:35:00;;;;;;;8.45;3.72;;;16.90;99.90;;;;;;5074950;28;20239;-73
2021/06/13 07:37:28;;;;;;;5.68;3.42;;;17.10;99.90;;;;;;5074466;28;20293;-74
2021/06/13 07:39:56;;;;;;;8.45;3.60;;;17.40;99.90;;;;;;5074563;28;20204;-73
2021/06/13 07:42:25;;;;;;;8.30;3.67;;;17.70;99.90;;;;;;5074587;28;20192;-73
2021/06/13 07:44:53;;;;;;;8.07;3.60;;;18.10;99.90;;;;;;5074450;28;20201;-73
2021/06/13 07:47:21;;;;;;;7.85;3.55;;;18.40;99.90;;;;;;5074437;28;20193;-73
2021/06/13 07:49:49;;;;;;;3.92;2.72;;;18.40;99.90;;;;;;5074456;28;20204;-73
2021/06/13 07:52:17;;;;;;;6.07;2.80;;;18.40;99.90;;;;;;5075429;28;20634;-76
2021/06/13 07:54:45;;;;;;;6.25;3.38;;;18.50;99.90;;;;;;5095021;28;20218;-74
2021/06/13 07:57:12;;;;;;;7.97;3.60;;;18.70;99.90;;;;;;5095039;28;20303;-73
2021/06/13 07:59:41;;;;;;;6.35;3.03;;;18.80;99.90;;;;;;5094843;28;20199;-74
2021/06/13 08:02:12;;;;;;;5.10;3.08;;;18.70;99.90;;;;;;5079945;28;20197;-75
2021/06/13 08:04:44;;;;;;;5.97;2.67;;;18.80;99.90;;;;;;5074580;28;20280;-75
2021/06/13 08:07:12;;;;;;;6.72;3.30;;;18.70;99.90;;;;;;5077800;28;20581;-73
2021/06/13 08:09:53;;;;;;;5.80;2.47;;;18.80;99.90;;;;;;5077511;28;20189;-74
2021/06/13 08:12:21;;;;;;;4.30;2.75;;;18.70;99.90;;;;;;5077771;28;20225;-74
2021/06/13 08:14:50;;;;;;;8.82;3.08;;;18.80;99.90;;;;;;5077153;28;20233;-74
2021/06/13 08:17:18;;;;;;;7.03;2.67;;;18.70;99.90;;;;;;5075816;28;20655;-74
2021/06/13 08:19:46;;;;;;;8.55;2.80;;;18.50;99.90;;;;;;5078087;28;20235;-73
2021/06/13 08:22:27;;;;;;;2.97;2.10;;;18.30;99.90;;;;;;5077473;28;20305;-75
2021/06/13 08:24:55;;;;;;;5.80;2.10;;;18.10;99.90;;;;;;5079330;28;20755;-74
2021/06/13 08:27:23;;;;;;;6.65;2.78;;;18.00;99.90;;;;;;5078261;28;20267;-74
2021/06/13 08:29:52;;;;;;;7.40;2.50;;;17.90;99.90;;;;;;5079015;28;20728;-74
2021/06/13 08:32:20;;;;;;;7.63;2.47;;;17.70;99.90;;;;;;5076079;28;20201;-75
2021/06/13 08:34:48;;;;;;;6.30;3.00;;;17.50;99.90;;;;;;5075904;28;20220;-74
2021/06/13 08:37:17;;;;;;;5.65;2.45;;;17.40;99.90;;;;;;5097649;28;20287;-73
2021/06/13 08:39:45;;;;;;;7.10;2.80;;;17.40;99.90;;;;;;5098261;28;20264;-74
2021/06/13 08:42:13;;;;;;;5.55;2.92;;;17.30;99.90;;;;;;5090699;28;20212;-75
2021/06/13 08:44:41;;;;;;;6.25;2.78;;;17.20;99.90;;;;;;5082361;28;20725;-75
2021/06/13 08:47:11;;;;;;;6.03;2.92;;;17.40;99.90;;;;;;5091318;28;20243;-73
2021/06/13 08:49:40;;;;;;;6.28;2.83;;;17.60;99.90;;;;;;5068217;28;20668;-75
2021/06/13 08:52:09;;;;;;;5.90;2.33;;;18.00;99.90;;;;;;5082574;28;20234;-73
2021/06/13 08:54:37;;;;;;;4.93;2.40;;;18.40;99.90;;;;;;5074964;28;20220;-74
2021/06/13 08:57:06;;;;;;;6.15;2.70;;;18.80;99.90;;;;;;5073665;28;20337;-74
2021/06/13 08:59:36;;;;;;;6.25;2.50;;;19.20;99.90;;;;;;5073463;28;20262;-73
2021/06/13 09:02:05;;;;;;;6.32;2.95;;;19.30;99.90;;;;;;5093375;28;20283;-74
2021/06/13 09:04:35;;;;;;;4.18;2.40;;;19.50;99.90;;;;;;5093083;28;20199;-74
2021/06/13 09:07:11;;;;;;;4.95;2.22;;;19.50;99.90;;;;;;5092915;28;20239;-73
2021/06/13 09:09:40;;;;;;;7.88;2.33;;;19.60;99.90;;;;;;5093077;28;20184;-74
2021/06/13 09:12:10;;;;;;;5.88;2.28;;;19.60;99.90;;;;;;5093065;28;20257;-74
2021/06/13 09:14:39;;;;;;;6.30;2.30;;;19.40;99.90;;;;;;5092866;28;20295;-75
2021/06/13 09:17:15;;;;;;;3.03;2.22;;;19.50;99.90;;;;;;5082733;28;20198;-75
2021/06/13 09:20:08;;;;;;;6.18;2.38;;;19.70;99.90;;;;;;5053028;28;20198;-74
2021/06/13 09:22:37;;;;;;;4.10;2.22;;;19.80;99.90;;;;;;5053681;28;20228;-75
2021/06/13 09:25:07;;;;;;;4.47;2.55;;;20.20;99.90;;;;;;5072701;28;20193;-73
2021/06/13 09:27:34;;;;;;;2.95;2.00;;;20.40;99.90;;;;;;5071643;28;20328;-75
2021/06/13 09:30:03;;;;;;;5.25;2.17;;;20.70;99.90;;;;;;5072518;28;20316;-73
2021/06/13 09:32:31;;;;;;;6.15;2.10;;;21.00;99.90;;;;;;5072700;28;20299;-73
2021/06/13 09:35:22;;;;;;;3.03;2.17;;;20.80;99.90;;;;;;5072156;28;20315;-73
2021/06/13 09:38:07;;;;;;;4.93;2.42;;;20.60;99.90;;;;;;5072029;28;20211;-73
2021/06/13 09:40:36;;;;;;;3.72;2.28;;;20.40;99.90;;;;;;5072547;28;20205;-73
2021/06/13 09:43:20;;;;;;;6.20;2.10;;;20.30;99.90;;;;;;5072270;28;20634;-74
2021/06/13 09:45:54;;;;;;;6.00;2.47;;;20.20;99.90;;;;;;5070885;28;20739;-75
2021/06/13 09:48:22;;;;;;;6.20;2.30;;;20.00;99.90;;;;;;5071826;28;20200;-73
2021/06/13 09:50:53;;;;;;;4.82;2.13;;;19.90;99.90;;;;;;5073032;28;20235;-73
2021/06/13 09:53:38;;;;;;;5.28;2.58;;;19.90;99.90;;;;;;5092408;28;20188;-74
2021/06/13 09:56:24;;;;;;;5.15;2.80;;;19.80;99.90;;;;;;5092629;28;20264;-73
2021/06/13 09:58:58;;;;;;;7.75;2.47;;;19.90;99.90;;;;;;5092540;28;20184;-73
2021/06/13 10:01:29;;;;;;;6.45;2.08;;;20.30;99.90;;;;;;5092684;28;20187;-74
2021/06/13 10:03:57;;;;;;;7.40;2.50;;;20.40;99.90;;;;;;5092395;28;20184;-73
2021/06/13 10:06:31;;;;;;;4.30;2.30;;;20.60;99.90;;;;;;5092214;28;20589;-75
2021/06/13 10:08:59;;;;;;;6.22;2.35;;;20.80;99.90;;;;;;5092327;28;20271;-74
2021/06/13 10:11:28;;;;;;;5.63;2.33;;;20.70;99.90;;;;;;5092378;28;20214;-74
2021/06/13 10:13:58;;;;;;;3.70;2.20;;;20.40;99.90;;;;;;5092056;28;20238;-73
2021/06/13 10:16:33;;;;;;;5.35;2.15;;;20.00;99.90;;;;;;5092737;28;20287;-74
2021/06/13 10:19:05;;;;;;;4.63;2.50;;;19.70;99.90;;;;;;5092583;28;20595;-74
2021/06/13 10:21:36;;;;;;;4.53;2.00;;;19.40;99.90;;;;;;5091896;28;20194;-73
2021/06/13 10:24:08;;;;;;;3.35;2.08;;;19.30;99.90;;;;;;5092319;28;20190;-74
2021/06/13 10:26:42;;;;;;;5.70;2.15;;;19.30;99.90;;;;;;5091981;28;20723;-74
2021/06/13 10:29:10;;;;;;;3.50;2.22;;;19.30;99.90;;;;;;5071217;28;20193;-74
2021/06/13 10:31:39;;;;;;;4.43;1.98;;;19.50;99.90;;;;;;5069086;28;20221;-73
2021/06/13 10:34:07;;;;;;;3.00;1.95;;;19.60;99.90;;;;;;5071444;28;20299;-73
2021/06/13 10:36:40;;;;;;;4.80;2.60;;;19.90;99.90;;;;;;5069364;28;20215;-74
2021/06/13 10:39:09;;;;;;;4.82;2.40;;;19.80;99.90;;;;;;5053008;28;20193;-73
2021/06/13 10:41:38;;;;;;;4.28;2.08;;;20.00;99.90;;;;;;5054217;28;20308;-74
2021/06/13 10:44:10;;;;;;;5.00;2.22;;;20.30;99.90;;;;;;5068632;28;20668;-74
2021/06/13 10:46:40;;;;;;;3.78;2.10;;;20.60;99.90;;;;;;5071638;28;20652;-75
2021/06/13 10:49:29;;;;;;;3.72;2.08;;;20.70;99.90;;;;;;5072165;28;20212;-73
2021/06/13 10:52:11;;;;;;;4.07;1.90;;;20.50;99.90;;;;;;5081164;28;20652;-72
2021/06/13 10:54:56;;;;;;;4.95;2.75;;;20.30;99.90;;;;;;5051810;28;20279;-74
2021/06/13 10:57:34;;;;;;;4.20;1.85;;;20.20;99.90;;;;;;5061696;28;20543;-73
2021/06/13 11:00:20;;;;;;;6.68;2.28;;;20.10;99.90;;;;;;5071952;28;20217;-72
2021/06/13 11:02:57;;;;;;;4.32;2.30;;;20.10;99.90;;;;;;5060357;28;20208;-73
2021/06/13 11:05:40;;;;;;;2.90;2.10;;;20.10;99.90;;;;;;5073474;28;20232;-73
2021/06/13 11:08:11;;;;;;;6.00;3.35;;;20.10;99.90;;;;;;5074778;28;20267;-74
2021/06/13 11:10:40;;;;;;;6.57;2.30;;;20.10;99.90;;;;;;5075286;28;20612;-74
2021/06/13 11:13:24;;;;;;;4.22;2.20;;;20.30;99.90;;;;;;5075267;28;20207;-73
2021/06/13 11:16:03;;;;;;;4.72;2.40;;;20.50;99.90;;;;;;5075362;28;20205;-73
2021/06/13 11:18:37;;;;;;;6.63;2.40;;;20.30;99.90;;;;;;5075099;28;20634;-73
2021/06/13 11:21:17;;;;;;;3.40;2.30;;;20.10;99.90;;;;;;5076642;28;20239;-74
2021/06/13 11:23:52;;;;;;;4.45;2.20;;;20.30;99.90;;;;;;5078926;28;20235;-74
2021/06/13 11:26:35;;;;;;;3.30;2.10;;;20.60;99.90;;;;;;5081411;28;20219;-73
2021/06/13 11:29:04;;;;;;;5.57;2.60;;;21.00;99.90;;;;;;5055247;28;20647;-74
2021/06/13 11:31:32;;;;;;;4.75;2.30;;;21.20;99.90;;;;;;5054558;28;20368;-74
2021/06/13 11:34:10;;;;;;;6.18;2.70;;;21.10;99.90;;;;;;5054922;28;20206;-73
2021/06/13 11:36:41;;;;;;;4.45;2.50;;;20.70;99.90;;;;;;5054723;28;20292;-72
2021/06/13 11:39:27;;;;;;;4.60;2.83;;;20.30;99.90;;;;;;5054805;28;20229;-73
2021/06/13 11:42:17;;;;;;;4.32;2.88;;;20.10;99.90;;;;;;5054532;28;20277;-73
2021/06/13 11:44:48;;;;;;;6.00;3.30;;;19.90;99.90;;;;;;5054601;28;20292;-73
2021/06/13 11:47:38;;;;;;;8.65;3.47;;;20.10;99.90;;;;;;5054723;28;20273;-75
2021/06/13 11:50:11;;;;;;;6.80;3.03;;;20.40;99.90;;;;;;5051561;28;20237;-73
2021/06/13 11:52:51;;;;;;;5.93;2.80;;;20.60;99.90;;;;;;5069980;28;20231;-74
2021/06/13 11:55:20;;;;;;;7.00;3.25;;;20.70;99.90;;;;;;5074222;28;20292;-74
2021/06/13 11:57:48;;;;;;;5.40;2.95;;;20.80;99.90;;;;;;5074400;28;20213;-74
2021/06/13 12:00:18;;;;;;;6.00;2.78;;;20.80;99.90;;;;;;5074398;28;20284;-74
2021/06/13 12:02:46;;;;;;;4.97;3.00;;;20.80;99.90;;;;;;5074313;28;20181;-74
2021/06/13 12:05:34;;;;;;;4.50;2.58;;;20.90;99.90;;;;;;5073998;28;20219;-73
2021/06/13 12:08:02;;;;;;;5.13;3.28;;;21.10;99.90;;;;;;5074075;28;20211;-73
2021/06/13 12:10:34;;;;;;;4.72;3.13;;;20.90;99.90;;;;;;5073713;28;20300;-72
2021/06/13 12:13:07;;;;;;;5.07;2.92;;;20.90;99.90;;;;;;5073812;28;20318;-74
2021/06/13 12:15:35;;;;;;;6.25;2.70;;;21.10;99.90;;;;;;5073556;28;20689;-73
2021/06/13 12:18:05;;;;;;;6.07;2.60;;;21.10;99.90;;;;;;5073582;28;20657;-74
2021/06/13 12:20:33;;;;;;;5.35;2.80;;;21.00;99.90;;;;;;5073283;28;20207;-74
2021/06/13 12:23:06;;;;;;;5.45;2.78;;;20.80;99.90;;;;;;5073614;28;20304;-74
2021/06/13 12:28:28;;;;;;;6.95;2.70;;;20.80;99.90;;;;;;5067402;28;20236;-74
2021/06/13 12:30:57;;;;;;;6.28;2.50;;;20.30;99.90;;;;;;5073300;28;20268;-73
2021/06/13 12:33:34;;;;;;;5.35;3.17;;;20.30;99.90;;;;;;5073432;28;20197;-74
2021/06/13 12:36:03;;;;;;;4.78;2.50;;;20.50;99.90;;;;;;5073407;28;20204;-73
2021/06/13 12:38:35;;;;;;;5.15;3.30;;;20.70;99.90;;;;;;5073328;28;20651;-72
2021/06/13 12:41:05;;;;;;;4.43;2.60;;;20.80;99.90;;;;;;5073499;28;20292;-73
2021/06/13 12:43:39;;;;;;;5.63;3.15;;;20.90;99.90;;;;;;5073370;28;20185;-73
2021/06/13 12:46:10;;;;;;;4.50;3.10;;;20.90;99.90;;;;;;5072505;28;20640;-73
2021/06/13 12:48:38;;;;;;;6.35;3.03;;;20.80;99.90;;;;;;5072743;28;20201;-72
2021/06/13 12:51:07;;;;;;;5.00;2.72;;;21.10;99.90;;;;;;5075790;28;20295;-73
2021/06/13 12:53:36;;;;;;;7.85;4.47;;;21.10;99.90;;;;;;5093380;28;20217;-74
2021/06/13 12:56:05;;;;;;;4.95;3.20;;;21.00;99.90;;;;;;5091303;28;20220;-73
2021/06/13 12:58:40;;;;;;;4.97;2.90;;;21.10;99.90;;;;;;5072836;28;20272;-72
2021/06/13 13:01:09;;;;;;;5.22;3.00;;;21.10;99.90;;;;;;5072576;28;20185;-73
2021/06/13 13:03:42;;;;;;;7.47;3.00;;;21.20;99.90;;;;;;5072744;28;20200;-73
2021/06/13 13:06:11;;;;;;;5.05;2.80;;;21.30;99.90;;;;;;5072757;28;20243;-73